Aeroporto :
LOGIN :

Iscrizione | Disclaimer

   EN    FR    IT 

 










Sommario :    VFR   VFR Marginale   IFR   IFR Intensivo   IFR Molto Intensivo
Visibilità : 
Base nubi : 
>= 8 km
>= 3000ft
5 / 8 km
1000 / 3000 ft
1500m / 5 km
500 / 1000 ft
800 / 1500m
200 / 500 ft
< 800m
< 200 ft
Simboli :   Temporali  Nebbia  Neve Forte  Precipitazioni Forti  Vento > 20 kt
SIGMETs :   Varie  Temporali  Ghiacco  Turbolenza  Onda orograficha  Ceneri Vulcaniche






- Altitudine del aeroporto : 86 ft
- Codice IATA : HAU


ENHD - Haugesund

ULTIMO METAR :
  • 241220Z AUTO 16014KT 9999 -RA SCT023/// BKN045/// 14/10 Q0982

METARs OBSOLETI :
  • 241150Z AUTO 17016KT 9999 FEW020/// SCT042/// 14/10 Q0982
  • 241120Z AUTO 17012KT 140V200 9999 FEW020/// 14/10 Q0981
  • 241050Z AUTO 17014KT 9999 FEW010/// BKN047/// 14/11 Q0981 RESHRA
  • 241020Z AUTO 13019G33KT 2000 -RA VV017 12/11 Q0981 RERA
  • 240950Z AUTO 09006KT 9999 SCT003/// BKN031/// 12/11 Q0981

TAF TAF ENHD
Valido dal 24 a 12 ore il 24 a 19 ore UTC


241100Z 2412/2419 16018KT 9999 -RA SCT006 BKN015
TEMPO 2412/2418 22020G35KT 4000 SHRA BKN008 SCT015CB



MetMap, La meteo Aeronautica in un colpo d'occhio ! - Copyright ORBIFLY Dicembre 2007 - Disclaimer

ORBIFLY MET'MAP TEAM :

Programmazione e sviluppo : Alexandra Zaïnal
Concezione : Baudouin d'Aumeries
Aiuto per la programmazione : Marc-Olivier Méhu
Supporto tecnico e logistico : Manuel Goepfert
Aiuto per la traduzione : Arnaldo La Scala

Contatto : metmap@orbifly.com




FONTI E CREDITI :

   NOAA